Time;durP1;ratioP1;P1;durP2;ratioP2;P2;SDS_P1;SDS_P2;PMS_P1;PMS_P2;Temp;Humidity;BMP_temperature;BMP_pressure;BME280_temperature;BME280_humidity;BME280_pressure;Samples;Min_cycle;Max_cycle;Signal;HPM_P1;HPM_P2
2022/07/11 00:00:03;;;;;;;0.82;0.23;;;;;;;;;;1820170;77;26653;-51
2022/07/11 00:02:31;;;;;;;0.37;0.30;;;;;;;;;;1814144;78;26369;-51
2022/07/11 00:04:58;;;;;;;0.23;0.23;;;;;;;;;;1810090;78;26609;-53
2022/07/11 00:07:26;;;;;;;1.40;0.30;;;;;;;;;;1806892;78;26321;-49
2022/07/11 00:09:53;;;;;;;0.40;0.30;;;;;;;;;;1800559;78;26382;-50
2022/07/11 00:12:21;;;;;;;0.40;0.40;;;;;;;;;;1859477;76;26332;-50
2022/07/11 00:14:49;;;;;;;0.30;0.30;;;;;;;;;;1854812;76;26261;-49
2022/07/11 00:17:16;;;;;;;0.30;0.30;;;;;;;;;;1857326;76;26281;-49
2022/07/11 00:19:43;;;;;;;0.40;0.40;;;;;;;;;;1868750;76;26262;-52
2022/07/11 00:22:10;;;;;;;0.30;0.30;;;;;;;;;;1874883;76;26266;-50
2022/07/11 00:24:38;;;;;;;0.90;0.30;;;;;;;;;;1858684;76;26328;-49
2022/07/11 00:27:05;;;;;;;0.30;0.30;;;;;;;;;;1863860;76;26744;-49
2022/07/11 00:29:33;;;;;;;0.30;0.30;;;;;;;;;;1858880;76;26265;-49
2022/07/11 00:32:00;;;;;;;0.90;0.30;;;;;;;;;;1866093;76;26323;-49
2022/07/11 00:34:27;;;;;;;0.40;0.40;;;;;;;;;;1862481;76;26254;-48
2022/07/11 00:36:55;;;;;;;0.28;0.28;;;;;;;;;;1871681;76;26591;-52
2022/07/11 00:39:22;;;;;;;0.33;0.33;;;;;;;;;;1860961;76;26335;-49
2022/07/11 00:41:49;;;;;;;0.20;0.20;;;;;;;;;;1865441;76;26246;-51
2022/07/11 00:44:16;;;;;;;0.80;0.30;;;;;;;;;;1862179;76;26639;-50
2022/07/11 00:46:44;;;;;;;0.30;0.30;;;;;;;;;;1868549;76;26293;-53
2022/07/11 00:49:11;;;;;;;0.40;0.40;;;;;;;;;;1866319;76;26274;-51
2022/07/11 00:51:38;;;;;;;0.30;0.30;;;;;;;;;;1863081;76;26296;-52
2022/07/11 00:54:08;;;;;;;0.40;0.40;;;;;;;;;;1869322;76;26321;-49
2022/07/11 00:56:35;;;;;;;0.30;0.30;;;;;;;;;;1869286;76;26713;-49
2022/07/11 00:59:03;;;;;;;0.30;0.30;;;;;;;;;;1866711;76;26236;-49
2022/07/11 01:01:32;;;;;;;0.40;0.40;;;;;;;;;;1860001;76;26285;-49
2022/07/11 01:03:59;;;;;;;0.53;0.30;;;;;;;;;;1864312;76;26234;-51
2022/07/11 01:06:26;;;;;;;1.52;0.40;;;;;;;;;;1863683;76;26782;-52
2022/07/11 01:08:53;;;;;;;0.25;0.25;;;;;;;;;;1877811;76;26708;-49
2022/07/11 01:11:21;;;;;;;0.30;0.30;;;;;;;;;;1866344;76;26837;-52
2022/07/11 01:13:48;;;;;;;0.30;0.30;;;;;;;;;;1859739;76;26331;-49
2022/07/11 01:16:17;;;;;;;0.28;0.28;;;;;;;;;;1873425;76;26268;-49
2022/07/11 01:18:46;;;;;;;0.62;0.40;;;;;;;;;;1863029;76;26268;-50
2022/07/11 01:21:26;;;;;;;0.33;0.33;;;;;;;;;;1875344;76;26313;-52
2022/07/11 01:23:55;;;;;;;0.30;0.30;;;;;;;;;;1873077;76;26383;-49
2022/07/11 01:26:23;;;;;;;0.40;0.40;;;;;;;;;;1874540;75;26218;-50
2022/07/11 01:28:51;;;;;;;0.35;0.35;;;;;;;;;;1871471;76;26315;-50
2022/07/11 01:31:18;;;;;;;0.30;0.30;;;;;;;;;;1864740;76;26338;-48
2022/07/11 01:33:46;;;;;;;0.47;0.47;;;;;;;;;;1869158;75;26312;-49
2022/07/11 01:36:13;;;;;;;0.30;0.30;;;;;;;;;;1867993;76;26645;-49
2022/07/11 01:38:41;;;;;;;0.30;0.30;;;;;;;;;;1868693;76;26268;-51
2022/07/11 01:41:08;;;;;;;0.20;0.20;;;;;;;;;;1821471;77;26278;-50
2022/07/11 01:43:36;;;;;;;0.30;0.30;;;;;;;;;;1822007;77;26239;-49
2022/07/11 01:46:03;;;;;;;0.20;0.20;;;;;;;;;;1823649;77;26300;-50
2022/07/11 01:48:30;;;;;;;0.40;0.40;;;;;;;;;;1829570;78;26721;-50
2022/07/11 01:50:57;;;;;;;0.30;0.30;;;;;;;;;;1819793;77;26349;-50
2022/07/11 01:53:25;;;;;;;0.40;0.40;;;;;;;;;;1829127;77;26367;-49
2022/07/11 01:55:52;;;;;;;0.25;0.25;;;;;;;;;;1828156;77;26315;-48
2022/07/11 01:58:20;;;;;;;0.37;0.37;;;;;;;;;;1790962;79;26786;-53
2022/07/11 02:00:47;;;;;;;0.40;0.40;;;;;;;;;;1779848;78;26336;-49
2022/07/11 02:03:14;;;;;;;0.57;0.40;;;;;;;;;;1776987;78;26353;-51
2022/07/11 02:05:41;;;;;;;0.20;0.20;;;;;;;;;;1826697;77;26793;-49
2022/07/11 02:08:13;;;;;;;0.37;0.30;;;;;;;;;;1828528;77;26789;-49
2022/07/11 02:10:41;;;;;;;0.30;0.30;;;;;;;;;;1818639;77;26363;-53
2022/07/11 02:13:13;;;;;;;0.40;0.40;;;;;;;;;;1812576;77;26214;-49
2022/07/11 02:15:38;;;;;;;0.40;0.40;;;;;;;;;;1822761;77;26322;-50
2022/07/11 02:18:05;;;;;;;0.40;0.40;;;;;;;;;;1819656;77;26269;-50
2022/07/11 02:20:33;;;;;;;0.30;0.30;;;;;;;;;;1822503;77;26338;-52
2022/07/11 02:23:01;;;;;;;0.20;0.20;;;;;;;;;;1817292;78;26295;-52
2022/07/11 02:25:28;;;;;;;0.88;0.37;;;;;;;;;;1820418;78;26287;-52
2022/07/11 02:27:56;;;;;;;0.37;0.37;;;;;;;;;;1807883;77;26300;-50
2022/07/11 02:30:23;;;;;;;0.40;0.40;;;;;;;;;;1813569;77;26260;-49
2022/07/11 02:32:51;;;;;;;0.30;0.30;;;;;;;;;;1856324;76;26825;-50
2022/07/11 02:35:18;;;;;;;0.40;0.40;;;;;;;;;;1863527;76;26356;-51
2022/07/11 02:37:46;;;;;;;0.40;0.40;;;;;;;;;;1861069;76;26277;-50
2022/07/11 02:40:13;;;;;;;0.33;0.33;;;;;;;;;;1852991;76;26276;-50
2022/07/11 02:42:40;;;;;;;1.27;0.40;;;;;;;;;;1857151;76;26964;-52
2022/07/11 02:45:08;;;;;;;0.40;0.40;;;;;;;;;;1847736;76;26595;-52
2022/07/11 02:47:38;;;;;;;0.33;0.33;;;;;;;;;;1858258;76;26281;-50
2022/07/11 02:50:09;;;;;;;0.40;0.40;;;;;;;;;;1851845;76;26289;-50
2022/07/11 02:52:36;;;;;;;0.30;0.30;;;;;;;;;;1850709;76;26261;-51
2022/07/11 02:55:04;;;;;;;0.37;0.37;;;;;;;;;;1866330;76;26257;-52
2022/07/11 02:57:31;;;;;;;0.30;0.30;;;;;;;;;;1864571;76;26280;-54
2022/07/11 02:59:58;;;;;;;0.80;0.40;;;;;;;;;;1837064;76;26296;-49
2022/07/11 03:02:26;;;;;;;0.53;0.53;;;;;;;;;;1860359;76;26265;-50
2022/07/11 03:04:53;;;;;;;0.40;0.40;;;;;;;;;;1867507;76;26304;-48
2022/07/11 03:07:20;;;;;;;0.78;0.45;;;;;;;;;;1867628;76;26211;-53
2022/07/11 03:09:47;;;;;;;0.40;0.40;;;;;;;;;;1865195;76;26350;-49
2022/07/11 03:12:15;;;;;;;0.20;0.20;;;;;;;;;;1787875;78;26227;-49
2022/07/11 03:14:42;;;;;;;0.30;0.30;;;;;;;;;;1770226;80;26788;-52
2022/07/11 03:17:10;;;;;;;0.30;0.30;;;;;;;;;;1779648;79;26710;-48
2022/07/11 03:19:37;;;;;;;0.57;0.57;;;;;;;;;;1781834;79;26365;-49
2022/07/11 03:22:05;;;;;;;0.40;0.40;;;;;;;;;;1783924;79;26301;-52
2022/07/11 03:24:32;;;;;;;0.40;0.40;;;;;;;;;;1782302;79;26306;-49
2022/07/11 03:26:59;;;;;;;1.55;0.30;;;;;;;;;;1796469;78;26282;-51
2022/07/11 03:29:26;;;;;;;0.30;0.30;;;;;;;;;;1770643;80;26306;-49
2022/07/11 03:31:54;;;;;;;0.28;0.28;;;;;;;;;;1777263;79;26258;-49
2022/07/11 03:34:21;;;;;;;0.70;0.40;;;;;;;;;;1784928;79;26380;-48
2022/07/11 03:36:48;;;;;;;0.37;0.35;;;;;;;;;;1770152;79;26365;-48
2022/07/11 03:39:15;;;;;;;1.10;0.45;;;;;;;;;;1772292;79;26559;-50
2022/07/11 03:41:43;;;;;;;0.30;0.30;;;;;;;;;;1787356;79;26600;-49
2022/07/11 03:44:10;;;;;;;0.40;0.40;;;;;;;;;;1779107;79;26362;-48
2022/07/11 03:46:38;;;;;;;0.30;0.30;;;;;;;;;;1777959;79;26282;-48
2022/07/11 03:49:05;;;;;;;0.30;0.30;;;;;;;;;;1783873;79;26285;-49
2022/07/11 03:51:32;;;;;;;0.40;0.40;;;;;;;;;;1779183;79;26393;-50
2022/07/11 03:54:00;;;;;;;0.40;0.40;;;;;;;;;;1789000;78;26290;-49
2022/07/11 03:56:27;;;;;;;0.30;0.30;;;;;;;;;;1773926;79;26300;-51
2022/07/11 03:58:55;;;;;;;0.30;0.30;;;;;;;;;;1779163;80;26415;-52
2022/07/11 04:01:22;;;;;;;4.67;0.82;;;;;;;;;;1768606;80;26341;-54
2022/07/11 04:03:49;;;;;;;0.30;0.30;;;;;;;;;;1756014;79;26301;-50
2022/07/11 04:06:16;;;;;;;0.40;0.40;;;;;;;;;;1784276;79;26279;-51
2022/07/11 04:08:44;;;;;;;0.42;0.42;;;;;;;;;;1792954;78;26768;-50
2022/07/11 04:11:11;;;;;;;0.40;0.40;;;;;;;;;;1785141;79;26704;-52
2022/07/11 04:13:38;;;;;;;0.68;0.60;;;;;;;;;;1808685;78;26661;-51
2022/07/11 04:16:06;;;;;;;0.40;0.40;;;;;;;;;;1858697;76;26358;-50
2022/07/11 04:18:34;;;;;;;0.40;0.40;;;;;;;;;;1861543;76;26701;-49
2022/07/11 04:21:01;;;;;;;0.30;0.30;;;;;;;;;;1863052;76;26285;-49
2022/07/11 04:23:28;;;;;;;0.85;0.40;;;;;;;;;;1858359;76;26260;-46
2022/07/11 04:25:55;;;;;;;0.23;0.23;;;;;;;;;;1852472;76;26894;-50
2022/07/11 04:28:23;;;;;;;0.40;0.40;;;;;;;;;;1859039;76;26656;-50
2022/07/11 04:30:50;;;;;;;0.30;0.30;;;;;;;;;;1859263;76;26308;-49
2022/07/11 04:33:17;;;;;;;0.25;0.25;;;;;;;;;;1862128;76;26269;-52
2022/07/11 04:35:45;;;;;;;0.30;0.30;;;;;;;;;;1860330;76;26316;-50
2022/07/11 04:38:12;;;;;;;1.40;0.42;;;;;;;;;;1866114;76;26265;-51
2022/07/11 04:40:39;;;;;;;0.47;0.47;;;;;;;;;;1855736;76;26796;-51
2022/07/11 04:43:07;;;;;;;0.37;0.37;;;;;;;;;;1861977;76;26775;-49
2022/07/11 04:45:34;;;;;;;0.93;0.50;;;;;;;;;;1862860;76;26741;-49
2022/07/11 04:48:01;;;;;;;3.47;0.60;;;;;;;;;;1862369;76;26261;-49
2022/07/11 04:50:29;;;;;;;1.85;0.40;;;;;;;;;;1862696;76;26323;-52
2022/07/11 04:52:56;;;;;;;0.40;0.40;;;;;;;;;;1863901;76;26609;-48
2022/07/11 04:55:24;;;;;;;0.40;0.40;;;;;;;;;;1855831;76;26212;-51
2022/07/11 04:57:52;;;;;;;0.40;0.40;;;;;;;;;;1863585;76;26359;-50
2022/07/11 05:00:19;;;;;;;0.70;0.40;;;;;;;;;;1865668;76;26261;-51
2022/07/11 05:02:47;;;;;;;0.35;0.35;;;;;;;;;;1866386;76;26815;-49
2022/07/11 05:05:14;;;;;;;0.33;0.33;;;;;;;;;;1855410;76;26393;-52
2022/07/11 05:07:41;;;;;;;0.50;0.50;;;;;;;;;;1859992;76;26636;-51
2022/07/11 05:10:09;;;;;;;0.55;0.35;;;;;;;;;;1863968;76;26374;-49
2022/07/11 05:12:36;;;;;;;0.90;0.42;;;;;;;;;;1869158;76;26697;-52
2022/07/11 05:15:04;;;;;;;0.30;0.30;;;;;;;;;;1854892;76;26274;-54
2022/07/11 05:17:31;;;;;;;0.68;0.50;;;;;;;;;;1850517;76;26294;-53
2022/07/11 05:19:58;;;;;;;0.40;0.30;;;;;;;;;;1854284;76;26374;-49
2022/07/11 05:22:25;;;;;;;0.40;0.40;;;;;;;;;;1857448;76;26284;-51
2022/07/11 05:24:53;;;;;;;0.47;0.47;;;;;;;;;;1863357;76;26572;-51
2022/07/11 05:27:20;;;;;;;0.30;0.30;;;;;;;;;;1858055;76;26296;-49
2022/07/11 05:29:47;;;;;;;0.62;0.37;;;;;;;;;;1849725;76;26250;-55
2022/07/11 05:32:14;;;;;;;0.70;0.50;;;;;;;;;;1848894;76;26261;-51
2022/07/11 05:34:42;;;;;;;1.17;0.50;;;;;;;;;;1848098;76;26221;-50
2022/07/11 05:37:09;;;;;;;1.27;0.40;;;;;;;;;;1851536;76;26321;-51
2022/07/11 05:39:36;;;;;;;2.08;0.40;;;;;;;;;;1853309;76;26198;-48
2022/07/11 05:42:04;;;;;;;3.35;0.30;;;;;;;;;;1855841;76;26383;-52
2022/07/11 05:44:32;;;;;;;0.70;0.40;;;;;;;;;;1862882;76;26321;-51
2022/07/11 05:47:01;;;;;;;0.40;0.40;;;;;;;;;;1856195;76;26273;-50
2022/07/11 05:49:28;;;;;;;2.10;0.40;;;;;;;;;;1857097;76;26210;-49
2022/07/11 05:51:55;;;;;;;1.98;0.40;;;;;;;;;;1853337;76;26370;-49
2022/07/11 05:54:23;;;;;;;5.53;0.40;;;;;;;;;;1859385;76;26732;-50
2022/07/11 05:56:50;;;;;;;2.50;0.50;;;;;;;;;;1856600;76;26261;-49
2022/07/11 05:59:17;;;;;;;1.57;0.40;;;;;;;;;;1854189;76;26348;-53
2022/07/11 06:01:44;;;;;;;0.88;0.50;;;;;;;;;;1858361;76;26325;-49
2022/07/11 06:04:12;;;;;;;0.42;0.40;;;;;;;;;;1867119;76;26261;-50
2022/07/11 06:06:40;;;;;;;0.35;0.35;;;;;;;;;;1861842;76;26814;-54
2022/07/11 06:09:07;;;;;;;0.42;0.42;;;;;;;;;;1855704;76;26309;-52
2022/07/11 06:11:34;;;;;;;0.30;0.30;;;;;;;;;;1858103;76;26321;-50
2022/07/11 06:14:02;;;;;;;0.65;0.30;;;;;;;;;;1857579;76;26301;-55
2022/07/11 06:16:30;;;;;;;0.40;0.40;;;;;;;;;;1852409;76;26270;-50
2022/07/11 06:18:57;;;;;;;2.08;0.53;;;;;;;;;;1853993;76;26261;-52
2022/07/11 06:21:26;;;;;;;0.80;0.50;;;;;;;;;;1860090;76;26713;-51
2022/07/11 06:23:54;;;;;;;1.85;0.30;;;;;;;;;;1856473;76;26603;-47
2022/07/11 06:26:22;;;;;;;1.45;0.42;;;;;;;;;;1858082;76;26732;-53
2022/07/11 06:28:49;;;;;;;0.35;0.35;;;;;;;;;;1863353;76;26343;-53
2022/07/11 06:31:16;;;;;;;2.08;0.30;;;;;;;;;;1856125;76;26266;-52
2022/07/11 06:33:44;;;;;;;2.87;0.53;;;;;;;;;;1858085;76;26351;-51
2022/07/11 06:36:11;;;;;;;0.72;0.42;;;;;;;;;;1851474;76;26342;-47
2022/07/11 06:38:39;;;;;;;2.08;0.60;;;;;;;;;;1865179;76;26297;-47
2022/07/11 06:41:06;;;;;;;1.45;0.50;;;;;;;;;;1848072;76;26280;-47
2022/07/11 06:43:34;;;;;;;2.83;0.53;;;;;;;;;;1860981;76;26272;-46
2022/07/11 06:46:01;;;;;;;0.40;0.40;;;;;;;;;;1870428;76;26250;-47
2022/07/11 06:48:29;;;;;;;1.85;0.35;;;;;;;;;;1851237;76;26321;-47
2022/07/11 06:50:56;;;;;;;3.08;0.40;;;;;;;;;;1862802;76;26202;-46
2022/07/11 06:53:23;;;;;;;0.53;0.37;;;;;;;;;;1863700;76;26635;-46
2022/07/11 06:55:50;;;;;;;1.35;0.45;;;;;;;;;;1869450;76;26379;-49
2022/07/11 06:58:32;;;;;;;0.30;0.30;;;;;;;;;;1858309;76;26312;-47
2022/07/11 07:01:00;;;;;;;0.80;0.40;;;;;;;;;;1846366;75;26234;-47
2022/07/11 07:03:28;;;;;;;0.40;0.40;;;;;;;;;;1836145;76;26274;-47
2022/07/11 07:05:57;;;;;;;2.05;0.55;;;;;;;;;;1861147;76;26300;-50
2022/07/11 07:08:25;;;;;;;0.30;0.30;;;;;;;;;;1855902;76;26850;-49
2022/07/11 07:10:53;;;;;;;0.30;0.30;;;;;;;;;;1861081;76;26337;-48
2022/07/11 07:13:23;;;;;;;0.20;0.20;;;;;;;;;;1852472;76;26799;-45
2022/07/11 07:15:50;;;;;;;2.25;0.40;;;;;;;;;;1859595;76;26604;-54
2022/07/11 07:18:18;;;;;;;3.10;0.40;;;;;;;;;;1865316;76;26278;-50
2022/07/11 07:20:45;;;;;;;0.98;0.25;;;;;;;;;;1860725;76;26317;-51
2022/07/11 07:23:13;;;;;;;1.52;0.50;;;;;;;;;;1865419;76;26756;-54
2022/07/11 07:25:40;;;;;;;1.07;0.10;;;;;;;;;;1864338;76;26305;-53
2022/07/11 07:28:07;;;;;;;0.53;0.30;;;;;;;;;;1863556;76;26266;-51
2022/07/11 07:30:34;;;;;;;0.30;0.30;;;;;;;;;;1861159;76;26358;-52
2022/07/11 07:33:02;;;;;;;0.45;0.30;;;;;;;;;;1863593;76;26343;-55
2022/07/11 07:35:29;;;;;;;0.30;0.30;;;;;;;;;;1865382;76;26791;-52
2022/07/11 07:37:57;;;;;;;0.33;0.33;;;;;;;;;;1856936;76;26350;-53
2022/07/11 07:40:24;;;;;;;0.37;0.20;;;;;;;;;;1862491;76;26272;-56
2022/07/11 07:42:51;;;;;;;0.20;0.20;;;;;;;;;;1861764;76;26297;-54
2022/07/11 07:45:18;;;;;;;0.20;0.20;;;;;;;;;;1860763;76;26261;-52
2022/07/11 07:47:46;;;;;;;0.42;0.35;;;;;;;;;;1862996;76;26298;-51
2022/07/11 07:50:13;;;;;;;0.20;0.20;;;;;;;;;;1858857;76;26327;-55
2022/07/11 07:52:41;;;;;;;0.28;0.28;;;;;;;;;;1861592;76;27674;-53
2022/07/11 07:55:09;;;;;;;0.25;0.25;;;;;;;;;;1856186;76;26788;-54
2022/07/11 07:57:36;;;;;;;0.15;0.15;;;;;;;;;;1857295;76;26792;-53
2022/07/11 08:02:50;;;;;;;0.95;0.40;;;;;;;;;;1863507;76;26293;-55
2022/07/11 08:05:18;;;;;;;0.20;0.20;;;;;;;;;;1868876;76;26228;-54
2022/07/11 08:07:46;;;;;;;1.55;0.35;;;;;;;;;;1867065;76;26222;-54
2022/07/11 08:10:14;;;;;;;0.88;0.30;;;;;;;;;;1869913;76;26321;-53
2022/07/11 08:12:41;;;;;;;0.37;0.23;;;;;;;;;;1861389;76;26279;-54
2022/07/11 08:15:09;;;;;;;0.30;0.30;;;;;;;;;;1871365;75;26206;-50
2022/07/11 08:17:36;;;;;;;1.25;0.33;;;;;;;;;;1863642;75;26306;-53
2022/07/11 08:20:04;;;;;;;1.50;0.40;;;;;;;;;;1871950;75;26347;-47
2022/07/11 08:22:31;;;;;;;0.62;0.30;;;;;;;;;;1859647;76;26239;-47
2022/07/11 08:24:59;;;;;;;0.20;0.20;;;;;;;;;;1865081;75;26253;-45
2022/07/11 08:27:26;;;;;;;1.85;0.30;;;;;;;;;;1871548;75;26294;-44
2022/07/11 08:29:53;;;;;;;1.10;0.30;;;;;;;;;;1872749;75;26226;-46
2022/07/11 08:32:20;;;;;;;0.95;0.40;;;;;;;;;;1872680;75;26409;-47
2022/07/11 08:34:48;;;;;;;0.28;0.28;;;;;;;;;;1866766;75;26356;-47
2022/07/11 08:37:15;;;;;;;0.40;0.33;;;;;;;;;;1872685;75;26271;-46
2022/07/11 08:39:42;;;;;;;0.55;0.30;;;;;;;;;;1873201;76;26229;-48
2022/07/11 08:42:09;;;;;;;1.15;0.47;;;;;;;;;;1875333;75;26152;-47
2022/07/11 08:44:37;;;;;;;0.50;0.33;;;;;;;;;;1868824;75;26209;-49
2022/07/11 08:47:05;;;;;;;2.12;0.23;;;;;;;;;;1876409;75;26794;-49
2022/07/11 08:49:32;;;;;;;0.37;0.37;;;;;;;;;;1875559;75;26299;-47
2022/07/11 08:52:00;;;;;;;2.05;0.20;;;;;;;;;;1884161;75;26203;-49
2022/07/11 08:54:27;;;;;;;0.30;0.30;;;;;;;;;;1870770;75;26720;-49
2022/07/11 08:56:55;;;;;;;1.37;0.30;;;;;;;;;;1868588;75;26272;-49
2022/07/11 08:59:23;;;;;;;0.30;0.30;;;;;;;;;;1866465;76;26290;-49
2022/07/11 09:01:52;;;;;;;0.42;0.30;;;;;;;;;;1873301;75;26236;-48
2022/07/11 09:04:20;;;;;;;1.07;0.20;;;;;;;;;;1875831;75;26665;-47
2022/07/11 09:06:47;;;;;;;1.65;0.10;;;;;;;;;;1872108;75;26202;-50
2022/07/11 09:09:14;;;;;;;0.80;0.20;;;;;;;;;;1821484;77;26285;-49
2022/07/11 09:11:50;;;;;;;1.22;0.30;;;;;;;;;;1795682;78;26314;-49
2022/07/11 09:14:24;;;;;;;0.60;0.33;;;;;;;;;;1809609;78;26319;-48
2022/07/11 09:16:55;;;;;;;0.40;0.40;;;;;;;;;;1816599;77;26341;-48
2022/07/11 09:19:23;;;;;;;0.50;0.40;;;;;;;;;;1820916;77;26280;-50
2022/07/11 09:27:43;;;;;;;0.50;0.50;;;;;;;;;;1819787;77;26550;-48
2022/07/11 09:30:17;;;;;;;0.40;0.40;;;;;;;;;;1817972;77;26228;-48
2022/07/11 09:32:57;;;;;;;0.33;0.30;;;;;;;;;;1822666;77;26264;-53
2022/07/11 09:35:25;;;;;;;0.33;0.33;;;;;;;;;;1796885;78;26318;-51
2022/07/11 09:37:53;;;;;;;0.33;0.30;;;;;;;;;;1809873;78;26227;-50
2022/07/11 09:40:23;;;;;;;0.20;0.20;;;;;;;;;;1809134;78;26743;-51
2022/07/11 09:42:52;;;;;;;0.10;0.10;;;;;;;;;;1801755;78;26247;-48
2022/07/11 09:45:20;;;;;;;1.37;0.20;;;;;;;;;;1804832;78;26299;-50
2022/07/11 09:47:48;;;;;;;0.90;0.60;;;;;;;;;;1800661;79;26725;-49
2022/07/11 09:50:19;;;;;;;0.23;0.23;;;;;;;;;;1809094;78;26298;-50
2022/07/11 09:52:59;;;;;;;0.20;0.20;;;;;;;;;;1805627;78;26232;-52
2022/07/11 09:55:27;;;;;;;0.57;0.20;;;;;;;;;;1810288;78;26298;-49
2022/07/11 09:57:54;;;;;;;0.47;0.20;;;;;;;;;;1807546;79;26271;-49
2022/07/11 10:00:21;;;;;;;0.62;0.40;;;;;;;;;;1807698;79;26268;-49
2022/07/11 10:02:49;;;;;;;0.50;0.20;;;;;;;;;;1790755;78;26286;-51
2022/07/11 10:05:17;;;;;;;0.40;0.40;;;;;;;;;;1811848;77;26329;-49
2022/07/11 10:07:44;;;;;;;0.30;0.30;;;;;;;;;;1809314;78;26231;-48
2022/07/11 10:10:11;;;;;;;0.85;0.33;;;;;;;;;;1807091;77;26231;-51
2022/07/11 10:12:39;;;;;;;0.37;0.20;;;;;;;;;;1812384;79;26306;-51
2022/07/11 10:15:08;;;;;;;0.47;0.40;;;;;;;;;;1818937;78;27113;-49
2022/07/11 10:17:52;;;;;;;0.30;0.30;;;;;;;;;;1813516;78;26699;-48
2022/07/11 10:20:29;;;;;;;0.20;0.20;;;;;;;;;;1815256;78;26365;-48
2022/07/11 10:22:58;;;;;;;1.65;0.20;;;;;;;;;;1817232;78;26297;-48
2022/07/11 10:25:29;;;;;;;1.30;0.40;;;;;;;;;;1818561;78;26290;-48
2022/07/11 10:28:01;;;;;;;0.30;0.30;;;;;;;;;;1809676;78;26228;-49
2022/07/11 10:30:41;;;;;;;2.70;0.30;;;;;;;;;;1818421;78;27086;-51
2022/07/11 10:33:08;;;;;;;0.45;0.20;;;;;;;;;;1817311;78;26683;-52
2022/07/11 10:35:36;;;;;;;0.28;0.20;;;;;;;;;;1816263;77;26240;-51
2022/07/11 10:38:05;;;;;;;0.37;0.37;;;;;;;;;;1823203;77;26224;-52
2022/07/11 10:40:48;;;;;;;0.28;0.28;;;;;;;;;;1816951;78;26263;-49
2022/07/11 10:43:16;;;;;;;0.88;0.20;;;;;;;;;;1815061;77;26231;-52
2022/07/11 10:45:51;;;;;;;0.10;0.10;;;;;;;;;;1808809;78;26702;-49
2022/07/11 10:48:18;;;;;;;0.20;0.20;;;;;;;;;;1815472;78;26263;-50
2022/07/11 10:50:47;;;;;;;0.20;0.20;;;;;;;;;;1817422;78;26323;-49
2022/07/11 10:53:16;;;;;;;0.85;0.30;;;;;;;;;;1810145;78;26236;-49
2022/07/11 10:55:44;;;;;;;1.47;0.42;;;;;;;;;;1808004;78;26294;-49
2022/07/11 10:58:13;;;;;;;0.20;0.20;;;;;;;;;;1808925;78;26299;-49
2022/07/11 11:00:40;;;;;;;0.30;0.30;;;;;;;;;;1807837;78;26267;-48
2022/07/11 11:03:09;;;;;;;0.20;0.20;;;;;;;;;;1811333;78;26317;-49
2022/07/11 11:05:48;;;;;;;0.23;0.23;;;;;;;;;;1811293;78;26364;-48
2022/07/11 11:08:26;;;;;;;0.20;0.20;;;;;;;;;;1810214;78;26353;-49
2022/07/11 11:10:53;;;;;;;0.20;0.20;;;;;;;;;;1790615;78;26251;-48
2022/07/11 11:13:21;;;;;;;0.20;0.20;;;;;;;;;;1812459;78;26315;-49
2022/07/11 11:15:52;;;;;;;1.45;0.20;;;;;;;;;;1816104;78;26844;-48
2022/07/11 11:18:26;;;;;;;0.10;0.10;;;;;;;;;;1800774;79;26728;-48
2022/07/11 11:21:07;;;;;;;0.30;0.30;;;;;;;;;;1805604;79;26251;-48
2022/07/11 11:23:36;;;;;;;0.30;0.30;;;;;;;;;;1804575;78;27422;-50
2022/07/11 11:26:10;;;;;;;0.62;0.20;;;;;;;;;;1807223;78;27094;-53
2022/07/11 11:28:39;;;;;;;0.15;0.15;;;;;;;;;;1809599;78;26267;-48
2022/07/11 11:31:06;;;;;;;0.10;0.10;;;;;;;;;;1813000;79;26805;-49
2022/07/11 11:33:34;;;;;;;0.20;0.20;;;;;;;;;;1811285;77;26392;-48
2022/07/11 11:36:03;;;;;;;0.25;0.25;;;;;;;;;;1808329;79;26256;-47
2022/07/11 11:38:32;;;;;;;0.20;0.20;;;;;;;;;;1805772;79;26239;-51
2022/07/11 11:40:59;;;;;;;0.20;0.20;;;;;;;;;;1807425;79;26256;-48
2022/07/11 11:43:27;;;;;;;0.20;0.20;;;;;;;;;;1815440;78;26255;-51
2022/07/11 11:45:55;;;;;;;0.30;0.30;;;;;;;;;;1811529;79;26251;-48
2022/07/11 11:48:32;;;;;;;0.20;0.20;;;;;;;;;;1805836;78;27244;-49
2022/07/11 11:51:09;;;;;;;0.17;0.17;;;;;;;;;;1809672;79;26301;-47
2022/07/11 11:53:37;;;;;;;0.20;0.20;;;;;;;;;;1804962;79;26264;-48
2022/07/11 11:56:15;;;;;;;0.10;0.10;;;;;;;;;;1808132;78;26239;-48
2022/07/11 11:58:43;;;;;;;0.20;0.20;;;;;;;;;;1806834;79;26939;-48
2022/07/11 12:01:14;;;;;;;1.75;0.30;;;;;;;;;;1807721;78;26541;-49
2022/07/11 12:03:53;;;;;;;2.40;0.20;;;;;;;;;;1809779;79;26247;-50
2022/07/11 12:06:24;;;;;;;0.13;0.10;;;;;;;;;;1806945;79;26243;-52
2022/07/11 12:08:51;;;;;;;0.23;0.23;;;;;;;;;;1805805;79;26333;-52
2022/07/11 12:11:19;;;;;;;0.10;0.10;;;;;;;;;;1806045;79;26348;-52
2022/07/11 12:13:46;;;;;;;0.20;0.20;;;;;;;;;;1797662;79;26256;-54
2022/07/11 12:19:00;;;;;;;0.20;0.20;;;;;;;;;;1809629;79;26310;-49
2022/07/11 12:21:29;;;;;;;0.20;0.20;;;;;;;;;;1815049;78;26276;-49
2022/07/11 12:23:58;;;;;;;0.35;0.10;;;;;;;;;;1798277;79;26213;-52
2022/07/11 12:26:25;;;;;;;0.33;0.10;;;;;;;;;;1808660;79;26223;-54
2022/07/11 12:29:10;;;;;;;0.15;0.15;;;;;;;;;;1807096;78;26841;-50
2022/07/11 12:31:42;;;;;;;0.80;0.20;;;;;;;;;;1795570;79;27218;-50
2022/07/11 12:34:10;;;;;;;0.10;0.10;;;;;;;;;;1806160;79;26275;-51
2022/07/11 12:36:37;;;;;;;0.30;0.10;;;;;;;;;;1801455;79;26305;-50
2022/07/11 12:39:05;;;;;;;0.20;0.20;;;;;;;;;;1811425;79;26286;-48
2022/07/11 12:41:32;;;;;;;0.28;0.28;;;;;;;;;;1807310;79;26246;-50
2022/07/11 12:46:48;;;;;;;0.28;0.25;;;;;;;;;;1812844;79;26276;-50
2022/07/11 12:49:17;;;;;;;0.25;0.25;;;;;;;;;;1804294;79;26256;-49
2022/07/11 12:51:45;;;;;;;0.17;0.17;;;;;;;;;;1809991;79;26258;-50
2022/07/11 12:54:16;;;;;;;0.10;0.10;;;;;;;;;;1803807;79;26892;-51
2022/07/11 12:57:01;;;;;;;0.20;0.20;;;;;;;;;;1812082;78;26702;-49
2022/07/11 12:59:28;;;;;;;0.23;0.23;;;;;;;;;;1800184;78;26621;-52
2022/07/11 13:02:06;;;;;;;0.13;0.13;;;;;;;;;;1806423;79;26228;-51
2022/07/11 13:04:38;;;;;;;0.30;0.30;;;;;;;;;;1804498;79;26295;-51
2022/07/11 13:10:06;;;;;;;0.20;0.20;;;;;;;;;;1774382;78;26240;-49
2022/07/11 13:12:33;;;;;;;0.10;0.10;;;;;;;;;;1804892;79;26773;-50
2022/07/11 13:15:20;;;;;;;0.20;0.20;;;;;;;;;;1768011;79;27152;-50
2022/07/11 13:17:33;;;;;;;0.40;0.30;;;;;;;;;;1849989;76;26320;-50
2022/07/11 13:20:00;;;;;;;0.20;0.20;;;;;;;;;;1860018;77;26245;-51
2022/07/11 13:22:27;;;;;;;0.28;0.28;;;;;;;;;;1859904;76;26265;-51
2022/07/11 13:24:54;;;;;;;0.95;0.20;;;;;;;;;;1858974;76;26266;-51
2022/07/11 13:27:22;;;;;;;0.20;0.20;;;;;;;;;;1860307;76;26263;-50
2022/07/11 13:29:49;;;;;;;0.20;0.20;;;;;;;;;;1865187;76;26297;-52
2022/07/11 13:32:16;;;;;;;0.20;0.20;;;;;;;;;;1864394;76;26291;-51
2022/07/11 13:34:43;;;;;;;0.20;0.20;;;;;;;;;;1861152;76;26194;-50
2022/07/11 13:37:11;;;;;;;0.23;0.23;;;;;;;;;;1858218;76;26249;-53
2022/07/11 13:39:38;;;;;;;0.30;0.30;;;;;;;;;;1859603;76;26519;-51
2022/07/11 13:42:05;;;;;;;0.20;0.20;;;;;;;;;;1869418;76;27042;-52
2022/07/11 13:44:32;;;;;;;0.30;0.30;;;;;;;;;;1867036;76;26799;-51
2022/07/11 13:47:00;;;;;;;0.20;0.20;;;;;;;;;;1866582;76;26303;-51
2022/07/11 13:49:29;;;;;;;0.20;0.20;;;;;;;;;;1857708;76;26276;-50
2022/07/11 13:51:56;;;;;;;0.17;0.17;;;;;;;;;;1851143;76;26220;-53
2022/07/11 13:54:23;;;;;;;0.23;0.23;;;;;;;;;;1856906;76;26252;-51
2022/07/11 13:56:50;;;;;;;0.30;0.30;;;;;;;;;;1860945;76;26268;-50
2022/07/11 13:59:19;;;;;;;0.30;0.30;;;;;;;;;;1858518;76;26213;-50
2022/07/11 14:01:46;;;;;;;0.25;0.25;;;;;;;;;;1856521;76;26242;-56
2022/07/11 14:04:14;;;;;;;0.15;0.15;;;;;;;;;;1861927;76;26221;-51
2022/07/11 14:06:41;;;;;;;0.20;0.20;;;;;;;;;;1860408;76;26222;-52
2022/07/11 14:09:08;;;;;;;0.35;0.35;;;;;;;;;;1873642;76;26240;-51
2022/07/11 14:11:36;;;;;;;0.30;0.30;;;;;;;;;;1865127;76;26600;-52
2022/07/11 14:14:03;;;;;;;0.20;0.20;;;;;;;;;;1858868;76;26661;-52
2022/07/11 14:16:30;;;;;;;0.20;0.20;;;;;;;;;;1854410;76;26243;-50
2022/07/11 14:19:00;;;;;;;0.20;0.20;;;;;;;;;;1842512;76;26244;-49
2022/07/11 14:21:28;;;;;;;0.30;0.30;;;;;;;;;;1843688;76;27125;-48
2022/07/11 14:23:55;;;;;;;0.20;0.20;;;;;;;;;;1844550;76;26763;-50
2022/07/11 14:26:22;;;;;;;0.30;0.30;;;;;;;;;;1831331;76;26773;-49
2022/07/11 14:28:49;;;;;;;0.20;0.20;;;;;;;;;;1845261;76;26701;-51
2022/07/11 14:31:17;;;;;;;0.20;0.20;;;;;;;;;;1843373;76;26222;-49
2022/07/11 14:33:44;;;;;;;0.20;0.20;;;;;;;;;;1830454;77;26790;-53
2022/07/11 14:36:12;;;;;;;0.30;0.30;;;;;;;;;;1844194;76;26216;-50
2022/07/11 14:38:39;;;;;;;0.30;0.30;;;;;;;;;;1847297;76;26774;-49
2022/07/11 14:41:07;;;;;;;0.20;0.20;;;;;;;;;;1808832;78;26861;-51
2022/07/11 14:43:35;;;;;;;0.20;0.20;;;;;;;;;;1791214;78;26718;-54
2022/07/11 14:46:02;;;;;;;0.25;0.25;;;;;;;;;;1792162;78;26614;-52
2022/07/11 14:48:30;;;;;;;0.37;0.37;;;;;;;;;;1811350;78;27320;-51
2022/07/11 14:50:57;;;;;;;0.30;0.30;;;;;;;;;;1793729;78;26331;-50
2022/07/11 14:53:25;;;;;;;0.25;0.25;;;;;;;;;;1795569;78;26557;-49
2022/07/11 14:55:53;;;;;;;0.40;0.40;;;;;;;;;;1793007;78;26336;-53
2022/07/11 14:58:21;;;;;;;0.40;0.40;;;;;;;;;;1792976;78;26239;-51
2022/07/11 15:00:48;;;;;;;0.28;0.28;;;;;;;;;;1794627;78;26262;-50
2022/07/11 15:06:01;;;;;;;0.47;0.47;;;;;;;;;;1793838;78;26230;-51
2022/07/11 15:13:51;;;;;;;0.50;0.50;;;;;;;;;;1732561;81;26557;-49